sensor_id;sensor_type;location;lat;lon;timestamp;P1;durP1;ratioP1;P2;durP2;ratioP2
18267;SDS011;9260;49.998;19.880;2022-10-03T00:00:28;215.67;;;86.27;;
18267;SDS011;9260;49.998;19.880;2022-10-03T00:10:37;215.33;;;87.23;;
18267;SDS011;9260;49.998;19.880;2022-10-03T00:21:02;208.67;;;84.47;;
18267;SDS011;9260;49.998;19.880;2022-10-03T00:31:19;210.10;;;87.33;;
18267;SDS011;9260;49.998;19.880;2022-10-03T00:52:18;212.33;;;90.47;;
18267;SDS011;9260;49.998;19.880;2022-10-03T01:13:28;211.23;;;85.60;;
18267;SDS011;9260;49.998;19.880;2022-10-03T01:23:56;211.33;;;85.43;;
18267;SDS011;9260;49.998;19.880;2022-10-03T01:34:40;209.57;;;84.00;;
18267;SDS011;9260;49.998;19.880;2022-10-03T01:44:54;210.23;;;87.47;;
18267;SDS011;9260;49.998;19.880;2022-10-03T01:55:17;210.73;;;90.60;;
18267;SDS011;9260;49.998;19.880;2022-10-03T02:05:27;215.60;;;89.13;;
18267;SDS011;9260;49.998;19.880;2022-10-03T02:15:49;217.87;;;89.47;;
18267;SDS011;9260;49.998;19.880;2022-10-03T02:26:02;210.00;;;87.70;;
18267;SDS011;9260;49.998;19.880;2022-10-03T03:20:38;213.77;;;86.97;;
18267;SDS011;9260;49.998;19.880;2022-10-03T03:31:01;210.53;;;86.90;;
18267;SDS011;9260;49.998;19.880;2022-10-03T03:41:27;208.33;;;85.47;;
18267;SDS011;9260;49.998;19.880;2022-10-03T03:51:52;225.40;;;90.80;;
18267;SDS011;9260;49.998;19.880;2022-10-03T04:02:12;209.80;;;87.13;;
18267;SDS011;9260;49.998;19.880;2022-10-03T04:12:36;218.70;;;91.23;;
18267;SDS011;9260;49.998;19.880;2022-10-03T04:23:00;212.63;;;89.37;;
18267;SDS011;9260;49.998;19.880;2022-10-03T04:33:22;216.97;;;90.70;;
18267;SDS011;9260;49.998;19.880;2022-10-03T04:43:41;215.93;;;91.83;;
18267;SDS011;9260;49.998;19.880;2022-10-03T04:53:54;211.60;;;87.80;;
18267;SDS011;9260;49.998;19.880;2022-10-03T05:04:05;214.43;;;89.57;;
18267;SDS011;9260;49.998;19.880;2022-10-03T05:14:19;214.30;;;90.23;;
18267;SDS011;9260;49.998;19.880;2022-10-03T05:24:37;207.70;;;85.80;;
18267;SDS011;9260;49.998;19.880;2022-10-03T05:35:00;211.97;;;88.23;;
18267;SDS011;9260;49.998;19.880;2022-10-03T05:45:34;213.07;;;86.87;;
18267;SDS011;9260;49.998;19.880;2022-10-03T05:55:52;215.17;;;88.97;;
18267;SDS011;9260;49.998;19.880;2022-10-03T06:06:12;212.53;;;88.03;;
18267;SDS011;9260;49.998;19.880;2022-10-03T06:16:25;212.03;;;91.63;;
18267;SDS011;9260;49.998;19.880;2022-10-03T06:26:44;210.20;;;89.33;;
18267;SDS011;9260;49.998;19.880;2022-10-03T06:37:35;213.07;;;90.73;;
18267;SDS011;9260;49.998;19.880;2022-10-03T06:48:32;209.03;;;90.13;;
18267;SDS011;9260;49.998;19.880;2022-10-03T06:59:22;210.50;;;88.10;;
18267;SDS011;9260;49.998;19.880;2022-10-03T07:20:50;210.00;;;87.00;;
18267;SDS011;9260;49.998;19.880;2022-10-03T07:31:25;210.93;;;89.20;;
18267;SDS011;9260;49.998;19.880;2022-10-03T07:52:26;213.47;;;92.97;;
18267;SDS011;9260;49.998;19.880;2022-10-03T08:03:03;214.03;;;89.40;;
18267;SDS011;9260;49.998;19.880;2022-10-03T08:13:57;210.43;;;88.23;;
18267;SDS011;9260;49.998;19.880;2022-10-03T08:24:16;209.63;;;86.70;;
18267;SDS011;9260;49.998;19.880;2022-10-03T08:34:44;220.70;;;101.60;;
18267;SDS011;9260;49.998;19.880;2022-10-03T08:45:33;219.20;;;96.00;;
18267;SDS011;9260;49.998;19.880;2022-10-03T08:56:06;209.50;;;87.07;;
18267;SDS011;9260;49.998;19.880;2022-10-03T09:06:19;210.80;;;88.53;;
18267;SDS011;9260;49.998;19.880;2022-10-03T09:17:19;209.47;;;89.17;;
18267;SDS011;9260;49.998;19.880;2022-10-03T09:38:41;216.13;;;104.20;;
18267;SDS011;9260;49.998;19.880;2022-10-03T10:00:48;211.07;;;92.10;;
18267;SDS011;9260;49.998;19.880;2022-10-03T10:11:11;208.93;;;88.93;;
18267;SDS011;9260;49.998;19.880;2022-10-03T10:21:36;210.20;;;90.10;;
18267;SDS011;9260;49.998;19.880;2022-10-03T10:54:34;209.93;;;86.90;;
18267;SDS011;9260;49.998;19.880;2022-10-03T11:05:37;209.97;;;91.40;;
18267;SDS011;9260;49.998;19.880;2022-10-03T11:27:33;211.67;;;89.87;;
18267;SDS011;9260;49.998;19.880;2022-10-03T11:38:21;210.53;;;87.70;;
18267;SDS011;9260;49.998;19.880;2022-10-03T11:48:31;207.33;;;85.27;;
18267;SDS011;9260;49.998;19.880;2022-10-03T11:58:49;209.00;;;89.83;;
18267;SDS011;9260;49.998;19.880;2022-10-03T12:09:11;202.47;;;86.13;;
18267;SDS011;9260;49.998;19.880;2022-10-03T12:19:23;213.43;;;89.90;;
18267;SDS011;9260;49.998;19.880;2022-10-03T12:29:32;204.80;;;86.43;;
18267;SDS011;9260;49.998;19.880;2022-10-03T12:39:44;201.53;;;84.87;;
18267;SDS011;9260;49.998;19.880;2022-10-03T12:50:04;200.37;;;85.20;;
18267;SDS011;9260;49.998;19.880;2022-10-03T13:00:21;207.60;;;90.10;;
18267;SDS011;9260;49.998;19.880;2022-10-03T13:10:31;214.53;;;104.10;;
18267;SDS011;9260;49.998;19.880;2022-10-03T13:20:46;206.07;;;90.73;;
18267;SDS011;9260;49.998;19.880;2022-10-03T13:30:58;207.70;;;86.53;;
18267;SDS011;9260;49.998;19.880;2022-10-03T13:41:16;207.07;;;89.37;;
18267;SDS011;9260;49.998;19.880;2022-10-03T13:51:32;213.53;;;91.20;;
18267;SDS011;9260;49.998;19.880;2022-10-03T14:01:48;214.03;;;93.03;;
18267;SDS011;9260;49.998;19.880;2022-10-03T14:12:03;205.93;;;89.23;;
18267;SDS011;9260;49.998;19.880;2022-10-03T14:22:42;213.03;;;97.77;;
18267;SDS011;9260;49.998;19.880;2022-10-03T14:33:11;215.73;;;103.23;;
18267;SDS011;9260;49.998;19.880;2022-10-03T14:43:25;219.47;;;106.57;;
18267;SDS011;9260;49.998;19.880;2022-10-03T14:53:39;226.10;;;107.80;;
18267;SDS011;9260;49.998;19.880;2022-10-03T15:03:59;218.57;;;109.23;;
18267;SDS011;9260;49.998;19.880;2022-10-03T15:14:08;219.77;;;105.20;;
18267;SDS011;9260;49.998;19.880;2022-10-03T15:24:18;219.03;;;110.17;;
18267;SDS011;9260;49.998;19.880;2022-10-03T15:34:27;215.43;;;102.87;;
18267;SDS011;9260;49.998;19.880;2022-10-03T15:44:35;222.13;;;100.30;;
18267;SDS011;9260;49.998;19.880;2022-10-03T15:54:43;223.63;;;110.50;;
18267;SDS011;9260;49.998;19.880;2022-10-03T16:04:51;217.97;;;103.43;;
18267;SDS011;9260;49.998;19.880;2022-10-03T16:14:59;221.13;;;108.57;;
18267;SDS011;9260;49.998;19.880;2022-10-03T16:25:21;223.27;;;107.00;;
18267;SDS011;9260;49.998;19.880;2022-10-03T16:35:31;215.73;;;104.73;;
18267;SDS011;9260;49.998;19.880;2022-10-03T16:45:40;223.77;;;108.80;;
18267;SDS011;9260;49.998;19.880;2022-10-03T16:55:48;216.57;;;105.27;;
18267;SDS011;9260;49.998;19.880;2022-10-03T17:06:02;212.60;;;89.07;;
18267;SDS011;9260;49.998;19.880;2022-10-03T17:16:11;213.10;;;89.00;;
18267;SDS011;9260;49.998;19.880;2022-10-03T17:26:21;211.03;;;89.17;;
18267;SDS011;9260;49.998;19.880;2022-10-03T17:36:37;213.53;;;89.73;;
18267;SDS011;9260;49.998;19.880;2022-10-03T17:47:17;218.60;;;90.17;;
18267;SDS011;9260;49.998;19.880;2022-10-03T17:57:27;220.67;;;103.07;;
18267;SDS011;9260;49.998;19.880;2022-10-03T18:07:38;207.60;;;85.73;;
18267;SDS011;9260;49.998;19.880;2022-10-03T18:17:47;210.50;;;88.10;;
18267;SDS011;9260;49.998;19.880;2022-10-03T18:28:08;214.37;;;88.87;;
18267;SDS011;9260;49.998;19.880;2022-10-03T18:38:20;215.60;;;89.23;;
18267;SDS011;9260;49.998;19.880;2022-10-03T18:48:30;228.90;;;110.20;;
18267;SDS011;9260;49.998;19.880;2022-10-03T18:58:40;220.57;;;106.27;;
18267;SDS011;9260;49.998;19.880;2022-10-03T19:08:49;220.37;;;105.40;;
18267;SDS011;9260;49.998;19.880;2022-10-03T19:18:58;212.77;;;98.83;;
18267;SDS011;9260;49.998;19.880;2022-10-03T19:29:09;217.30;;;103.93;;
18267;SDS011;9260;49.998;19.880;2022-10-03T19:39:16;215.03;;;102.10;;
18267;SDS011;9260;49.998;19.880;2022-10-03T19:49:24;213.47;;;94.63;;
18267;SDS011;9260;49.998;19.880;2022-10-03T19:59:36;221.23;;;98.13;;
18267;SDS011;9260;49.998;19.880;2022-10-03T20:09:55;219.57;;;100.03;;
18267;SDS011;9260;49.998;19.880;2022-10-03T20:20:03;207.90;;;87.83;;
18267;SDS011;9260;49.998;19.880;2022-10-03T20:30:20;210.63;;;87.57;;
18267;SDS011;9260;49.998;19.880;2022-10-03T20:40:28;216.93;;;89.57;;
18267;SDS011;9260;49.998;19.880;2022-10-03T20:50:38;212.43;;;89.67;;
18267;SDS011;9260;49.998;19.880;2022-10-03T21:00:46;211.33;;;89.10;;
18267;SDS011;9260;49.998;19.880;2022-10-03T21:10:56;209.97;;;88.80;;
18267;SDS011;9260;49.998;19.880;2022-10-03T21:21:03;215.57;;;89.87;;
18267;SDS011;9260;49.998;19.880;2022-10-03T21:41:42;214.40;;;89.03;;
18267;SDS011;9260;49.998;19.880;2022-10-03T21:52:18;209.47;;;89.23;;
18267;SDS011;9260;49.998;19.880;2022-10-03T22:02:51;213.70;;;87.73;;
18267;SDS011;9260;49.998;19.880;2022-10-03T22:13:05;217.93;;;89.80;;
18267;SDS011;9260;49.998;19.880;2022-10-03T22:23:14;209.40;;;88.60;;
18267;SDS011;9260;49.998;19.880;2022-10-03T22:33:32;218.67;;;89.80;;
18267;SDS011;9260;49.998;19.880;2022-10-03T22:43:47;217.57;;;90.20;;
18267;SDS011;9260;49.998;19.880;2022-10-03T22:53:54;219.97;;;88.47;;
18267;SDS011;9260;49.998;19.880;2022-10-03T23:04:04;218.70;;;91.50;;
18267;SDS011;9260;49.998;19.880;2022-10-03T23:14:18;225.23;;;88.27;;
18267;SDS011;9260;49.998;19.880;2022-10-03T23:24:26;212.97;;;90.03;;
18267;SDS011;9260;49.998;19.880;2022-10-03T23:34:44;214.47;;;89.50;;
18267;SDS011;9260;49.998;19.880;2022-10-03T23:45:09;216.63;;;87.37;;
18267;SDS011;9260;49.998;19.880;2022-10-03T23:55:18;217.43;;;88.13;;
